aviador You're here:

KEHR Decoded Metar

HENDERSON CITY in KY, USA
Report Time2018-06-24 08:56:00
UTC Time2018-06-24 09:25:29
Flight Rules vfr VFR
WindCalm
Visibility9999 m
Phenomena:N/A
Clouds:N/A
Expected CloudBase > 400 ft AGL from Temp-Dew spread
CeilingNone
Temp21°C (ISA +7)
Dew Point20°C (94% RH)
QNH1012 hPa
Density Alt1,519 ft
Elevation384 ft
Report Wrong Elevation
Raw Report
METAR KEHR 240856Z AUTO 00000KT 8SM CLR 21/20 A2987 RMK AO2 SLP121
T02060200 53008=

Extra information for KEHR:More info

Metar Taf Metar & Taf Last 4 Metars F.Rules Stats Wind Profile Meteogram Temp Stats Airport Information Weather charts Add Link Nearby VenuesMetar ALERT Operation Metar Decoded Social comments

AIRNAV info for KEHR